sensor_id;sensor_type;location;lat;lon;timestamp;temperature;humidity
27026;DHT22;14565;48.626;8.978;2022-08-01T00:01:56;18.90;99.90
27026;DHT22;14565;48.626;8.978;2022-08-01T00:04:22;18.80;99.90
27026;DHT22;14565;48.626;8.978;2022-08-01T00:06:47;18.70;99.90
27026;DHT22;14565;48.626;8.978;2022-08-01T00:09:13;18.60;99.90
27026;DHT22;14565;48.626;8.978;2022-08-01T00:11:38;18.60;99.90
27026;DHT22;14565;48.626;8.978;2022-08-01T00:14:04;18.60;99.90
27026;DHT22;14565;48.626;8.978;2022-08-01T00:16:30;18.50;99.90
27026;DHT22;14565;48.626;8.978;2022-08-01T00:18:56;18.40;99.90
27026;DHT22;14565;48.626;8.978;2022-08-01T00:21:22;18.60;99.90
27026;DHT22;14565;48.626;8.978;2022-08-01T00:23:47;18.60;99.90
27026;DHT22;14565;48.626;8.978;2022-08-01T00:26:14;18.60;99.90
27026;DHT22;14565;48.626;8.978;2022-08-01T00:28:40;18.70;99.90
27026;DHT22;14565;48.626;8.978;2022-08-01T00:31:06;18.70;99.90
27026;DHT22;14565;48.626;8.978;2022-08-01T00:33:32;18.80;99.90
27026;DHT22;14565;48.626;8.978;2022-08-01T00:35:58;18.80;99.90
27026;DHT22;14565;48.626;8.978;2022-08-01T00:38:23;18.80;99.90
27026;DHT22;14565;48.626;8.978;2022-08-01T00:40:49;18.80;99.90
27026;DHT22;14565;48.626;8.978;2022-08-01T00:43:15;18.70;99.90
27026;DHT22;14565;48.626;8.978;2022-08-01T00:45:41;18.60;99.90
27026;DHT22;14565;48.626;8.978;2022-08-01T00:48:07;18.60;99.90
27026;DHT22;14565;48.626;8.978;2022-08-01T00:50:33;18.60;99.90
27026;DHT22;14565;48.626;8.978;2022-08-01T00:52:59;18.50;99.90
27026;DHT22;14565;48.626;8.978;2022-08-01T00:55:27;18.40;99.90
27026;DHT22;14565;48.626;8.978;2022-08-01T00:57:53;18.30;99.90
27026;DHT22;14565;48.626;8.978;2022-08-01T01:00:19;18.30;99.90
27026;DHT22;14565;48.626;8.978;2022-08-01T01:02:45;18.30;99.90
27026;DHT22;14565;48.626;8.978;2022-08-01T01:05:11;18.30;99.90
27026;DHT22;14565;48.626;8.978;2022-08-01T01:10:27;18.40;99.90
27026;DHT22;14565;48.626;8.978;2022-08-01T01:13:57;18.40;99.90
27026;DHT22;14565;48.626;8.978;2022-08-01T01:16:02;18.30;99.90
27026;DHT22;14565;48.626;8.978;2022-08-01T01:18:38;18.30;99.90
27026;DHT22;14565;48.626;8.978;2022-08-01T01:24:12;18.20;99.90
27026;DHT22;14565;48.626;8.978;2022-08-01T01:27:02;18.20;99.90
27026;DHT22;14565;48.626;8.978;2022-08-01T01:29:44;18.20;99.90
27026;DHT22;14565;48.626;8.978;2022-08-01T01:34:52;18.20;99.90
27026;DHT22;14565;48.626;8.978;2022-08-01T01:37:22;18.20;99.90
27026;DHT22;14565;48.626;8.978;2022-08-01T01:39:50;18.20;99.90
27026;DHT22;14565;48.626;8.978;2022-08-01T01:42:17;18.20;99.90
27026;DHT22;14565;48.626;8.978;2022-08-01T01:44:44;18.20;99.90
27026;DHT22;14565;48.626;8.978;2022-08-01T01:47:14;18.20;99.90
27026;DHT22;14565;48.626;8.978;2022-08-01T01:49:44;18.10;99.90
27026;DHT22;14565;48.626;8.978;2022-08-01T01:52:13;18.20;99.90
27026;DHT22;14565;48.626;8.978;2022-08-01T01:54:44;18.20;99.90
27026;DHT22;14565;48.626;8.978;2022-08-01T01:57:12;18.10;99.90
27026;DHT22;14565;48.626;8.978;2022-08-01T01:59:39;18.20;99.90
27026;DHT22;14565;48.626;8.978;2022-08-01T02:02:07;18.20;99.90
27026;DHT22;14565;48.626;8.978;2022-08-01T02:04:40;18.20;99.90
27026;DHT22;14565;48.626;8.978;2022-08-01T02:07:08;18.10;99.90
27026;DHT22;14565;48.626;8.978;2022-08-01T02:09:35;18.10;99.90
27026;DHT22;14565;48.626;8.978;2022-08-01T02:12:02;18.00;99.90
27026;DHT22;14565;48.626;8.978;2022-08-01T02:14:33;18.10;99.90
27026;DHT22;14565;48.626;8.978;2022-08-01T02:17:00;18.00;99.90
27026;DHT22;14565;48.626;8.978;2022-08-01T02:19:29;18.00;99.90
27026;DHT22;14565;48.626;8.978;2022-08-01T02:22:00;18.00;99.90
27026;DHT22;14565;48.626;8.978;2022-08-01T02:24:48;17.90;99.90
27026;DHT22;14565;48.626;8.978;2022-08-01T02:27:20;17.80;99.90
27026;DHT22;14565;48.626;8.978;2022-08-01T02:29:53;17.90;99.90
27026;DHT22;14565;48.626;8.978;2022-08-01T02:32:24;17.80;99.90
27026;DHT22;14565;48.626;8.978;2022-08-01T02:34:51;17.80;99.90
27026;DHT22;14565;48.626;8.978;2022-08-01T02:37:19;17.70;99.90
27026;DHT22;14565;48.626;8.978;2022-08-01T02:39:46;17.70;99.90
27026;DHT22;14565;48.626;8.978;2022-08-01T02:42:14;17.70;99.90
27026;DHT22;14565;48.626;8.978;2022-08-01T02:44:43;17.70;99.90
27026;DHT22;14565;48.626;8.978;2022-08-01T02:47:09;17.70;99.90
27026;DHT22;14565;48.626;8.978;2022-08-01T02:49:39;17.70;99.90
27026;DHT22;14565;48.626;8.978;2022-08-01T02:52:09;17.70;99.90
27026;DHT22;14565;48.626;8.978;2022-08-01T02:54:36;17.70;99.90
27026;DHT22;14565;48.626;8.978;2022-08-01T02:57:03;17.60;99.90
27026;DHT22;14565;48.626;8.978;2022-08-01T02:59:30;17.70;99.90
27026;DHT22;14565;48.626;8.978;2022-08-01T03:01:59;17.70;99.90
27026;DHT22;14565;48.626;8.978;2022-08-01T03:04:25;17.70;99.90
27026;DHT22;14565;48.626;8.978;2022-08-01T03:06:54;17.80;99.90
27026;DHT22;14565;48.626;8.978;2022-08-01T03:09:21;17.90;99.90
27026;DHT22;14565;48.626;8.978;2022-08-01T03:11:48;18.00;99.90
27026;DHT22;14565;48.626;8.978;2022-08-01T03:14:15;18.10;99.90
27026;DHT22;14565;48.626;8.978;2022-08-01T03:16:43;18.00;99.90
27026;DHT22;14565;48.626;8.978;2022-08-01T03:19:11;18.10;99.90
27026;DHT22;14565;48.626;8.978;2022-08-01T03:21:38;18.10;99.90
27026;DHT22;14565;48.626;8.978;2022-08-01T03:24:05;18.10;99.90
27026;DHT22;14565;48.626;8.978;2022-08-01T03:26:34;18.30;99.90
27026;DHT22;14565;48.626;8.978;2022-08-01T03:29:05;18.30;99.90
27026;DHT22;14565;48.626;8.978;2022-08-01T03:31:36;18.20;99.90
27026;DHT22;14565;48.626;8.978;2022-08-01T03:34:04;18.10;99.90
27026;DHT22;14565;48.626;8.978;2022-08-01T03:36:31;18.10;99.90
27026;DHT22;14565;48.626;8.978;2022-08-01T03:38:58;18.10;99.90
27026;DHT22;14565;48.626;8.978;2022-08-01T03:41:31;18.20;99.90
27026;DHT22;14565;48.626;8.978;2022-08-01T03:44:02;18.20;99.90
27026;DHT22;14565;48.626;8.978;2022-08-01T03:46:34;18.20;99.90
27026;DHT22;14565;48.626;8.978;2022-08-01T03:49:05;18.20;99.90
27026;DHT22;14565;48.626;8.978;2022-08-01T03:51:32;18.20;99.90
27026;DHT22;14565;48.626;8.978;2022-08-01T03:54:00;18.20;99.90
27026;DHT22;14565;48.626;8.978;2022-08-01T03:56:27;18.10;99.90
27026;DHT22;14565;48.626;8.978;2022-08-01T03:58:58;18.10;99.90
27026;DHT22;14565;48.626;8.978;2022-08-01T04:01:26;18.10;99.90
27026;DHT22;14565;48.626;8.978;2022-08-01T04:03:53;18.20;99.90
27026;DHT22;14565;48.626;8.978;2022-08-01T04:06:19;18.20;99.90
27026;DHT22;14565;48.626;8.978;2022-08-01T04:08:46;18.20;99.90
27026;DHT22;14565;48.626;8.978;2022-08-01T04:11:24;18.20;99.90
27026;DHT22;14565;48.626;8.978;2022-08-01T04:13:51;18.20;99.90
27026;DHT22;14565;48.626;8.978;2022-08-01T04:16:19;18.20;99.90
27026;DHT22;14565;48.626;8.978;2022-08-01T04:18:45;18.20;99.90
27026;DHT22;14565;48.626;8.978;2022-08-01T04:21:11;18.20;99.90
27026;DHT22;14565;48.626;8.978;2022-08-01T04:23:38;18.10;99.90
27026;DHT22;14565;48.626;8.978;2022-08-01T04:26:04;17.90;99.90
27026;DHT22;14565;48.626;8.978;2022-08-01T04:28:34;17.80;99.90
27026;DHT22;14565;48.626;8.978;2022-08-01T04:31:02;17.70;99.90
27026;DHT22;14565;48.626;8.978;2022-08-01T04:33:30;17.70;99.90
27026;DHT22;14565;48.626;8.978;2022-08-01T04:35:59;17.60;99.90
27026;DHT22;14565;48.626;8.978;2022-08-01T04:38:28;17.70;99.90
27026;DHT22;14565;48.626;8.978;2022-08-01T04:40:54;17.60;99.90
27026;DHT22;14565;48.626;8.978;2022-08-01T04:43:22;17.70;99.90
27026;DHT22;14565;48.626;8.978;2022-08-01T04:45:49;17.70;99.90
27026;DHT22;14565;48.626;8.978;2022-08-01T04:48:18;17.60;99.90
27026;DHT22;14565;48.626;8.978;2022-08-01T04:50:45;17.60;99.90
27026;DHT22;14565;48.626;8.978;2022-08-01T04:53:15;17.50;99.90
27026;DHT22;14565;48.626;8.978;2022-08-01T04:55:45;17.50;99.90
27026;DHT22;14565;48.626;8.978;2022-08-01T04:58:12;17.60;99.90
27026;DHT22;14565;48.626;8.978;2022-08-01T05:00:38;17.60;99.90
27026;DHT22;14565;48.626;8.978;2022-08-01T05:03:04;17.70;99.90
27026;DHT22;14565;48.626;8.978;2022-08-01T05:05:29;17.70;99.90
27026;DHT22;14565;48.626;8.978;2022-08-01T05:07:56;17.80;99.90
27026;DHT22;14565;48.626;8.978;2022-08-01T05:10:21;18.10;99.90
27026;DHT22;14565;48.626;8.978;2022-08-01T05:12:47;18.30;99.90
27026;DHT22;14565;48.626;8.978;2022-08-01T05:15:13;18.50;99.90
27026;DHT22;14565;48.626;8.978;2022-08-01T05:17:38;18.60;99.90
27026;DHT22;14565;48.626;8.978;2022-08-01T05:20:05;18.70;99.90
27026;DHT22;14565;48.626;8.978;2022-08-01T05:22:32;18.80;99.90
27026;DHT22;14565;48.626;8.978;2022-08-01T05:24:57;18.80;99.90
27026;DHT22;14565;48.626;8.978;2022-08-01T05:27:25;18.60;99.90
27026;DHT22;14565;48.626;8.978;2022-08-01T05:29:51;18.90;99.90
27026;DHT22;14565;48.626;8.978;2022-08-01T05:32:16;19.00;99.90
27026;DHT22;14565;48.626;8.978;2022-08-01T05:34:42;19.20;99.90
27026;DHT22;14565;48.626;8.978;2022-08-01T05:37:08;19.30;99.90
27026;DHT22;14565;48.626;8.978;2022-08-01T05:39:34;19.50;99.90
27026;DHT22;14565;48.626;8.978;2022-08-01T05:42:00;19.70;99.90
27026;DHT22;14565;48.626;8.978;2022-08-01T05:44:25;19.80;99.90
27026;DHT22;14565;48.626;8.978;2022-08-01T05:46:52;20.00;99.90
27026;DHT22;14565;48.626;8.978;2022-08-01T05:49:17;20.00;99.90
27026;DHT22;14565;48.626;8.978;2022-08-01T05:51:43;20.20;99.90
27026;DHT22;14565;48.626;8.978;2022-08-01T05:54:09;20.50;99.90
27026;DHT22;14565;48.626;8.978;2022-08-01T05:56:34;20.60;99.90
27026;DHT22;14565;48.626;8.978;2022-08-01T05:59:00;20.90;99.90
27026;DHT22;14565;48.626;8.978;2022-08-01T06:01:26;21.20;99.90
27026;DHT22;14565;48.626;8.978;2022-08-01T06:03:52;21.80;99.90
27026;DHT22;14565;48.626;8.978;2022-08-01T06:06:22;23.70;99.90
27026;DHT22;14565;48.626;8.978;2022-08-01T06:08:48;27.30;98.40
27026;DHT22;14565;48.626;8.978;2022-08-01T06:11:14;29.10;94.40
27026;DHT22;14565;48.626;8.978;2022-08-01T06:13:40;29.60;91.70
27026;DHT22;14565;48.626;8.978;2022-08-01T06:16:05;31.40;89.90
27026;DHT22;14565;48.626;8.978;2022-08-01T06:18:31;34.60;78.10
27026;DHT22;14565;48.626;8.978;2022-08-01T06:20:57;35.50;74.00
27026;DHT22;14565;48.626;8.978;2022-08-01T06:23:22;34.00;72.80
27026;DHT22;14565;48.626;8.978;2022-08-01T06:25:52;32.50;77.80
27026;DHT22;14565;48.626;8.978;2022-08-01T06:28:18;33.20;74.00
27026;DHT22;14565;48.626;8.978;2022-08-01T06:30:44;34.00;71.30
27026;DHT22;14565;48.626;8.978;2022-08-01T06:33:09;34.10;70.40
27026;DHT22;14565;48.626;8.978;2022-08-01T06:35:35;35.60;67.70
27026;DHT22;14565;48.626;8.978;2022-08-01T06:38:02;34.60;67.20
27026;DHT22;14565;48.626;8.978;2022-08-01T06:40:28;34.10;69.20
27026;DHT22;14565;48.626;8.978;2022-08-01T06:42:53;33.90;70.10
27026;DHT22;14565;48.626;8.978;2022-08-01T06:45:19;31.80;75.40
27026;DHT22;14565;48.626;8.978;2022-08-01T06:47:48;32.70;74.00
27026;DHT22;14565;48.626;8.978;2022-08-01T06:50:13;33.50;71.00
27026;DHT22;14565;48.626;8.978;2022-08-01T06:52:41;33.10;72.50
27026;DHT22;14565;48.626;8.978;2022-08-01T06:55:06;32.10;74.70
27026;DHT22;14565;48.626;8.978;2022-08-01T06:57:32;30.90;76.80
27026;DHT22;14565;48.626;8.978;2022-08-01T07:00:03;30.80;77.20
27026;DHT22;14565;48.626;8.978;2022-08-01T07:02:29;30.40;79.40
27026;DHT22;14565;48.626;8.978;2022-08-01T07:04:54;30.30;80.60
27026;DHT22;14565;48.626;8.978;2022-08-01T07:07:20;30.00;80.10
27026;DHT22;14565;48.626;8.978;2022-08-01T07:09:46;29.90;81.10
27026;DHT22;14565;48.626;8.978;2022-08-01T07:12:11;30.30;80.50
27026;DHT22;14565;48.626;8.978;2022-08-01T07:14:37;30.10;80.90
27026;DHT22;14565;48.626;8.978;2022-08-01T07:17:03;30.00;81.30
27026;DHT22;14565;48.626;8.978;2022-08-01T07:19:28;30.20;80.30
27026;DHT22;14565;48.626;8.978;2022-08-01T07:21:54;29.90;81.70
27026;DHT22;14565;48.626;8.978;2022-08-01T07:24:20;30.00;81.10
27026;DHT22;14565;48.626;8.978;2022-08-01T07:26:47;29.00;82.00
27026;DHT22;14565;48.626;8.978;2022-08-01T07:29:12;29.20;82.60
27026;DHT22;14565;48.626;8.978;2022-08-01T07:31:38;30.30;79.90
27026;DHT22;14565;48.626;8.978;2022-08-01T07:34:04;28.80;83.90
27026;DHT22;14565;48.626;8.978;2022-08-01T07:36:30;28.80;85.20
27026;DHT22;14565;48.626;8.978;2022-08-01T07:38:56;28.40;86.10
27026;DHT22;14565;48.626;8.978;2022-08-01T07:41:22;29.30;84.60
27026;DHT22;14565;48.626;8.978;2022-08-01T07:43:48;29.60;82.20
27026;DHT22;14565;48.626;8.978;2022-08-01T07:46:15;29.40;83.50
27026;DHT22;14565;48.626;8.978;2022-08-01T07:48:41;29.70;82.30
27026;DHT22;14565;48.626;8.978;2022-08-01T07:51:06;28.90;83.60
27026;DHT22;14565;48.626;8.978;2022-08-01T07:53:33;30.00;82.70
27026;DHT22;14565;48.626;8.978;2022-08-01T07:55:59;28.30;84.40
27026;DHT22;14565;48.626;8.978;2022-08-01T07:58:25;28.90;85.10
27026;DHT22;14565;48.626;8.978;2022-08-01T08:00:51;29.10;83.60
27026;DHT22;14565;48.626;8.978;2022-08-01T08:03:16;29.50;83.50
27026;DHT22;14565;48.626;8.978;2022-08-01T08:05:42;29.30;84.00
27026;DHT22;14565;48.626;8.978;2022-08-01T08:08:08;29.40;84.30
27026;DHT22;14565;48.626;8.978;2022-08-01T08:10:35;29.90;83.40
27026;DHT22;14565;48.626;8.978;2022-08-01T08:13:01;28.90;85.50
27026;DHT22;14565;48.626;8.978;2022-08-01T08:15:28;28.80;86.40
27026;DHT22;14565;48.626;8.978;2022-08-01T08:17:53;28.80;86.00
27026;DHT22;14565;48.626;8.978;2022-08-01T08:20:19;29.00;87.40
27026;DHT22;14565;48.626;8.978;2022-08-01T08:22:50;28.80;86.40
27026;DHT22;14565;48.626;8.978;2022-08-01T08:25:16;28.60;87.10
27026;DHT22;14565;48.626;8.978;2022-08-01T08:27:42;28.60;87.10
27026;DHT22;14565;48.626;8.978;2022-08-01T08:30:08;28.50;86.90
27026;DHT22;14565;48.626;8.978;2022-08-01T08:32:35;27.60;89.10
27026;DHT22;14565;48.626;8.978;2022-08-01T08:35:04;28.60;88.50
27026;DHT22;14565;48.626;8.978;2022-08-01T08:37:30;28.80;85.30
27026;DHT22;14565;48.626;8.978;2022-08-01T08:39:56;27.30;90.00
27026;DHT22;14565;48.626;8.978;2022-08-01T08:42:22;27.10;90.00
27026;DHT22;14565;48.626;8.978;2022-08-01T08:44:48;27.00;90.30
27026;DHT22;14565;48.626;8.978;2022-08-01T08:47:14;26.70;91.00
27026;DHT22;14565;48.626;8.978;2022-08-01T08:49:43;27.30;90.90
27026;DHT22;14565;48.626;8.978;2022-08-01T08:52:09;26.90;90.60
27026;DHT22;14565;48.626;8.978;2022-08-01T08:54:37;27.10;90.50
27026;DHT22;14565;48.626;8.978;2022-08-01T08:57:03;27.70;90.20
27026;DHT22;14565;48.626;8.978;2022-08-01T08:59:29;28.00;88.70
27026;DHT22;14565;48.626;8.978;2022-08-01T09:02:01;27.70;89.10
27026;DHT22;14565;48.626;8.978;2022-08-01T09:04:27;27.20;90.40
27026;DHT22;14565;48.626;8.978;2022-08-01T09:06:55;27.90;90.00
27026;DHT22;14565;48.626;8.978;2022-08-01T09:09:24;27.90;90.00
27026;DHT22;14565;48.626;8.978;2022-08-01T09:11:50;28.90;88.20
27026;DHT22;14565;48.626;8.978;2022-08-01T09:14:18;28.30;86.40
27026;DHT22;14565;48.626;8.978;2022-08-01T09:17:19;28.30;88.50
27026;DHT22;14565;48.626;8.978;2022-08-01T09:19:51;28.30;87.90
27026;DHT22;14565;48.626;8.978;2022-08-01T09:22:23;27.90;87.80
27026;DHT22;14565;48.626;8.978;2022-08-01T09:25:15;27.40;88.40
27026;DHT22;14565;48.626;8.978;2022-08-01T09:27:41;26.90;90.50
27026;DHT22;14565;48.626;8.978;2022-08-01T09:30:16;27.10;90.30
27026;DHT22;14565;48.626;8.978;2022-08-01T09:33:03;26.40;91.30
27026;DHT22;14565;48.626;8.978;2022-08-01T09:35:34;27.40;90.30
27026;DHT22;14565;48.626;8.978;2022-08-01T09:38:14;28.00;89.30
27026;DHT22;14565;48.626;8.978;2022-08-01T09:40:58;27.90;88.60
27026;DHT22;14565;48.626;8.978;2022-08-01T09:43:27;28.10;87.00
27026;DHT22;14565;48.626;8.978;2022-08-01T09:45:54;27.40;89.30
27026;DHT22;14565;48.626;8.978;2022-08-01T09:48:21;27.40;90.00
27026;DHT22;14565;48.626;8.978;2022-08-01T09:50:48;27.70;89.30
27026;DHT22;14565;48.626;8.978;2022-08-01T09:53:15;27.50;87.00
27026;DHT22;14565;48.626;8.978;2022-08-01T09:55:41;27.50;87.30
27026;DHT22;14565;48.626;8.978;2022-08-01T09:58:08;28.30;86.60
27026;DHT22;14565;48.626;8.978;2022-08-01T10:00:35;28.90;85.00
27026;DHT22;14565;48.626;8.978;2022-08-01T10:03:22;29.00;84.30
27026;DHT22;14565;48.626;8.978;2022-08-01T10:05:49;28.80;83.00
27026;DHT22;14565;48.626;8.978;2022-08-01T10:08:15;27.80;88.20
27026;DHT22;14565;48.626;8.978;2022-08-01T10:10:42;27.50;89.10
27026;DHT22;14565;48.626;8.978;2022-08-01T10:13:09;27.90;87.50
27026;DHT22;14565;48.626;8.978;2022-08-01T10:15:36;27.40;85.90
27026;DHT22;14565;48.626;8.978;2022-08-01T10:18:06;28.10;85.70
27026;DHT22;14565;48.626;8.978;2022-08-01T10:20:33;27.90;85.70
27026;DHT22;14565;48.626;8.978;2022-08-01T10:23:02;28.30;85.00
27026;DHT22;14565;48.626;8.978;2022-08-01T10:25:49;28.80;85.00
27026;DHT22;14565;48.626;8.978;2022-08-01T10:28:25;29.10;84.30
27026;DHT22;14565;48.626;8.978;2022-08-01T10:30:52;27.70;88.70
27026;DHT22;14565;48.626;8.978;2022-08-01T10:33:18;27.10;90.30
27026;DHT22;14565;48.626;8.978;2022-08-01T10:35:47;26.80;90.90
27026;DHT22;14565;48.626;8.978;2022-08-01T10:38:13;26.80;91.10
27026;DHT22;14565;48.626;8.978;2022-08-01T10:40:40;26.20;91.20
27026;DHT22;14565;48.626;8.978;2022-08-01T10:43:06;26.20;92.20
27026;DHT22;14565;48.626;8.978;2022-08-01T10:45:34;26.10;91.80
27026;DHT22;14565;48.626;8.978;2022-08-01T10:50:52;26.20;91.60
27026;DHT22;14565;48.626;8.978;2022-08-01T10:53:21;26.40;91.70
27026;DHT22;14565;48.626;8.978;2022-08-01T10:58:38;26.40;91.40
27026;DHT22;14565;48.626;8.978;2022-08-01T11:01:24;26.40;90.90
27026;DHT22;14565;48.626;8.978;2022-08-01T11:09:22;26.80;90.10
27026;DHT22;14565;48.626;8.978;2022-08-01T11:14:24;26.60;90.60
27026;DHT22;14565;48.626;8.978;2022-08-01T11:16:50;26.80;91.30
27026;DHT22;14565;48.626;8.978;2022-08-01T11:19:16;26.80;91.30
27026;DHT22;14565;48.626;8.978;2022-08-01T11:30:05;26.40;91.80
27026;DHT22;14565;48.626;8.978;2022-08-01T11:32:29;26.50;90.50
27026;DHT22;14565;48.626;8.978;2022-08-01T11:34:55;27.20;90.70
27026;DHT22;14565;48.626;8.978;2022-08-01T11:37:28;26.80;88.90
27026;DHT22;14565;48.626;8.978;2022-08-01T11:40:27;27.20;90.00
27026;DHT22;14565;48.626;8.978;2022-08-01T11:43:15;27.40;88.10
27026;DHT22;14565;48.626;8.978;2022-08-01T11:45:50;27.30;88.00
27026;DHT22;14565;48.626;8.978;2022-08-01T11:48:20;27.40;87.70
27026;DHT22;14565;48.626;8.978;2022-08-01T11:50:47;27.50;89.00
27026;DHT22;14565;48.626;8.978;2022-08-01T11:53:13;27.70;89.10
27026;DHT22;14565;48.626;8.978;2022-08-01T11:56:08;27.50;88.90
27026;DHT22;14565;48.626;8.978;2022-08-01T11:58:34;27.10;87.50
27026;DHT22;14565;48.626;8.978;2022-08-01T12:00:59;27.40;87.60
27026;DHT22;14565;48.626;8.978;2022-08-01T12:03:28;26.80;90.60
27026;DHT22;14565;48.626;8.978;2022-08-01T12:05:55;26.30;91.60
27026;DHT22;14565;48.626;8.978;2022-08-01T12:08:29;26.60;91.60
27026;DHT22;14565;48.626;8.978;2022-08-01T12:10:56;26.80;91.10
27026;DHT22;14565;48.626;8.978;2022-08-01T12:13:21;26.90;90.40
27026;DHT22;14565;48.626;8.978;2022-08-01T12:15:48;26.80;90.20
27026;DHT22;14565;48.626;8.978;2022-08-01T12:18:15;26.60;90.00
27026;DHT22;14565;48.626;8.978;2022-08-01T12:20:43;26.80;90.60
27026;DHT22;14565;48.626;8.978;2022-08-01T12:23:11;27.50;90.60
27026;DHT22;14565;48.626;8.978;2022-08-01T12:25:38;27.60;90.00
27026;DHT22;14565;48.626;8.978;2022-08-01T12:28:10;27.80;87.80
27026;DHT22;14565;48.626;8.978;2022-08-01T12:30:37;28.10;86.60
27026;DHT22;14565;48.626;8.978;2022-08-01T12:33:07;28.00;84.60
27026;DHT22;14565;48.626;8.978;2022-08-01T12:35:34;27.90;85.10
27026;DHT22;14565;48.626;8.978;2022-08-01T12:38:06;27.80;87.50
27026;DHT22;14565;48.626;8.978;2022-08-01T12:40:35;28.10;87.70
27026;DHT22;14565;48.626;8.978;2022-08-01T12:43:06;28.60;87.70
27026;DHT22;14565;48.626;8.978;2022-08-01T12:45:41;28.70;85.60
27026;DHT22;14565;48.626;8.978;2022-08-01T12:48:12;28.80;81.90
27026;DHT22;14565;48.626;8.978;2022-08-01T12:50:43;28.20;82.90
27026;DHT22;14565;48.626;8.978;2022-08-01T12:53:10;28.00;84.90
27026;DHT22;14565;48.626;8.978;2022-08-01T12:55:50;27.70;86.10
27026;DHT22;14565;48.626;8.978;2022-08-01T12:58:17;27.50;86.30
27026;DHT22;14565;48.626;8.978;2022-08-01T13:00:45;27.00;87.60
27026;DHT22;14565;48.626;8.978;2022-08-01T13:03:14;27.10;87.80
27026;DHT22;14565;48.626;8.978;2022-08-01T13:05:57;27.20;87.80
27026;DHT22;14565;48.626;8.978;2022-08-01T13:11:09;27.60;86.30
27026;DHT22;14565;48.626;8.978;2022-08-01T13:13:41;27.60;86.60
27026;DHT22;14565;48.626;8.978;2022-08-01T13:16:08;27.30;85.70
27026;DHT22;14565;48.626;8.978;2022-08-01T13:18:34;27.60;84.20
27026;DHT22;14565;48.626;8.978;2022-08-01T13:23:36;27.60;84.80
27026;DHT22;14565;48.626;8.978;2022-08-01T13:26:03;27.60;84.00
27026;DHT22;14565;48.626;8.978;2022-08-01T13:28:29;27.90;83.60
27026;DHT22;14565;48.626;8.978;2022-08-01T13:30:59;28.20;82.40
27026;DHT22;14565;48.626;8.978;2022-08-01T13:33:28;28.30;82.00
27026;DHT22;14565;48.626;8.978;2022-08-01T13:35:55;28.10;82.50
27026;DHT22;14565;48.626;8.978;2022-08-01T13:38:21;28.10;80.80
27026;DHT22;14565;48.626;8.978;2022-08-01T13:41:07;27.90;81.40
27026;DHT22;14565;48.626;8.978;2022-08-01T13:43:34;28.20;82.10
27026;DHT22;14565;48.626;8.978;2022-08-01T13:46:00;28.10;80.00
27026;DHT22;14565;48.626;8.978;2022-08-01T13:48:30;28.20;79.50
27026;DHT22;14565;48.626;8.978;2022-08-01T13:50:56;27.90;79.60
27026;DHT22;14565;48.626;8.978;2022-08-01T13:53:21;27.90;83.70
27026;DHT22;14565;48.626;8.978;2022-08-01T13:55:47;28.10;82.00
27026;DHT22;14565;48.626;8.978;2022-08-01T13:58:13;27.90;81.90
27026;DHT22;14565;48.626;8.978;2022-08-01T14:00:38;28.00;85.50
27026;DHT22;14565;48.626;8.978;2022-08-01T14:03:04;27.90;86.00
27026;DHT22;14565;48.626;8.978;2022-08-01T14:05:30;27.30;87.20
27026;DHT22;14565;48.626;8.978;2022-08-01T14:07:56;27.30;88.40
27026;DHT22;14565;48.626;8.978;2022-08-01T14:10:22;27.20;87.40
27026;DHT22;14565;48.626;8.978;2022-08-01T14:12:48;26.90;88.30
27026;DHT22;14565;48.626;8.978;2022-08-01T14:15:15;27.10;88.30
27026;DHT22;14565;48.626;8.978;2022-08-01T14:17:41;27.20;88.90
27026;DHT22;14565;48.626;8.978;2022-08-01T14:20:07;27.20;89.40
27026;DHT22;14565;48.626;8.978;2022-08-01T14:22:33;27.40;88.00
27026;DHT22;14565;48.626;8.978;2022-08-01T14:24:58;27.50;88.00
27026;DHT22;14565;48.626;8.978;2022-08-01T14:27:25;27.40;88.10
27026;DHT22;14565;48.626;8.978;2022-08-01T14:29:50;27.20;87.60
27026;DHT22;14565;48.626;8.978;2022-08-01T14:32:16;27.00;88.10
27026;DHT22;14565;48.626;8.978;2022-08-01T14:34:41;27.10;89.70
27026;DHT22;14565;48.626;8.978;2022-08-01T14:37:07;27.10;88.30
27026;DHT22;14565;48.626;8.978;2022-08-01T14:39:33;27.20;87.00
27026;DHT22;14565;48.626;8.978;2022-08-01T14:41:58;27.40;87.60
27026;DHT22;14565;48.626;8.978;2022-08-01T14:44:24;27.50;87.40
27026;DHT22;14565;48.626;8.978;2022-08-01T14:46:50;27.60;88.10
27026;DHT22;14565;48.626;8.978;2022-08-01T14:49:15;27.50;88.90
27026;DHT22;14565;48.626;8.978;2022-08-01T14:51:41;27.90;88.90
27026;DHT22;14565;48.626;8.978;2022-08-01T14:54:07;27.90;87.30
27026;DHT22;14565;48.626;8.978;2022-08-01T14:56:32;27.40;88.40
27026;DHT22;14565;48.626;8.978;2022-08-01T14:58:58;28.00;87.60
27026;DHT22;14565;48.626;8.978;2022-08-01T15:01:24;28.00;87.30
27026;DHT22;14565;48.626;8.978;2022-08-01T15:03:50;27.90;87.80
27026;DHT22;14565;48.626;8.978;2022-08-01T15:06:16;27.70;88.10
27026;DHT22;14565;48.626;8.978;2022-08-01T15:08:42;27.60;89.40
27026;DHT22;14565;48.626;8.978;2022-08-01T15:11:08;27.80;88.90
27026;DHT22;14565;48.626;8.978;2022-08-01T15:13:34;27.70;88.70
27026;DHT22;14565;48.626;8.978;2022-08-01T15:16:00;27.70;89.10
27026;DHT22;14565;48.626;8.978;2022-08-01T15:18:27;27.20;89.20
27026;DHT22;14565;48.626;8.978;2022-08-01T15:20:53;26.80;90.60
27026;DHT22;14565;48.626;8.978;2022-08-01T15:23:18;26.80;90.20
27026;DHT22;14565;48.626;8.978;2022-08-01T15:25:44;26.60;91.00
27026;DHT22;14565;48.626;8.978;2022-08-01T15:28:10;26.80;90.90
27026;DHT22;14565;48.626;8.978;2022-08-01T15:30:36;26.90;90.80
27026;DHT22;14565;48.626;8.978;2022-08-01T15:33:02;26.90;90.90
27026;DHT22;14565;48.626;8.978;2022-08-01T15:35:27;26.90;90.50
27026;DHT22;14565;48.626;8.978;2022-08-01T15:37:53;26.80;90.20
27026;DHT22;14565;48.626;8.978;2022-08-01T15:40:19;27.00;90.10
27026;DHT22;14565;48.626;8.978;2022-08-01T15:42:44;27.30;90.20
27026;DHT22;14565;48.626;8.978;2022-08-01T15:45:10;27.30;90.20
27026;DHT22;14565;48.626;8.978;2022-08-01T15:47:38;27.40;89.80
27026;DHT22;14565;48.626;8.978;2022-08-01T15:50:04;27.30;89.80
27026;DHT22;14565;48.626;8.978;2022-08-01T15:52:29;27.40;89.90
27026;DHT22;14565;48.626;8.978;2022-08-01T15:54:55;27.50;90.00
27026;DHT22;14565;48.626;8.978;2022-08-01T15:57:21;27.60;89.30
27026;DHT22;14565;48.626;8.978;2022-08-01T15:59:46;27.50;87.60
27026;DHT22;14565;48.626;8.978;2022-08-01T16:02:12;27.20;87.20
27026;DHT22;14565;48.626;8.978;2022-08-01T16:04:38;27.40;88.50
27026;DHT22;14565;48.626;8.978;2022-08-01T16:07:04;27.40;87.90
27026;DHT22;14565;48.626;8.978;2022-08-01T16:09:30;27.20;89.70
27026;DHT22;14565;48.626;8.978;2022-08-01T16:11:56;26.80;90.50